Main page
METAR-TAF:

METAR-TAF

Airports :

Maple Lake Municipal Airport

Maple Lake, Minnesota, United States

latitude: 45-14-10N, longitude: 093-59-08W, elevation: 1027 ft

Current weather observation

The report was made 47 minutes ago, at 21:15 UTC
Wind 10 mph from the Southwest with gusts up to 16 mph
Temperature 64°F
Humidity 37%
Pressure 29.61 in. Hg
Visibility: 10 miles
Scattered clouds at a height of 10000 ft

METAR: KMGG 222115Z AUTO 23009G14KT 10SM SCT100 18/03 A2961 RMK AO2 T01840027

Time: 17:02 (22:02 UTC)


TAF: missing

Weather observations and forecasts of more than 4000 airports (METAR and TAF reports).

The available stations are represented by yellow and red dots on the map.

Hover mouse over dot to see the name of the station.

Then click to see weather observations and forecasts.

To change the map : click on the green buttons with a black cross to zoom in, on the green button with a dash to zoom out, or on the green arrows for adjacent maps.


METAR-TAF: